EBOS/OST METAR and TAF weather

Enter ICAO airport designator
Station Type Date Time Source
EBOS METAR 2018/12/12 17:20 UTC NOAA

EBOS 121720Z 07009KT CAVOK 02/01 Q1023 NOSIG


Station Type Date Time Source
EBOS Decoded METAR 2018/12/12 17:20 UTC NOAA

Oostende Airport , Belgium (EBOS) 51-12N 002-52E 5M
Dec 12, 2018 - 12:20 PM EST / 2018.12.12 1720 UTC
Wind: from the ENE (070 degrees) at 10 MPH (9 KT):0
Visibility: greater than 7 mile(s):0
Temperature: 35 F (2 C)
Windchill: 26 F (-3 C):1
Dew Point: 33 F (1 C)
Relative Humidity: 93%
Pressure (altimeter): 30.21 in. Hg (1023 hPa)
ob: EBOS 121720Z 07009KT CAVOK 02/01 Q1023 NOSIG
cycle: 17

Station Type Date Time Source
EBOS TAF 2018/12/12 18:27 UTC NOAA

TAF EBOS 121710Z 1218/1324 10010KT 9999 FEW020 SCT040 PROB30
TEMPO 1218/1221 2500 BR BKN005


Example: see airport list